Capri, Italy

1:01 AM CET on February 07, 2016 (GMT +0100)
Ciraccio | | Change Station
CLOSE
Current Station
Personal Weather Station
Location: Procida, NA
Elevation: 46 ft
Nearby Weather Stations

Elev 46 ft 40.76 °N, 14.01 °E | Updated 10 seconds ago

Clear
Clear
52.2 °F
Feels Like 52.2 °F
N
3.0
Wind Variable Wind from SSE
Gusts 5.4 mph

Today
High -- | Low -- °F
--% Chance of Precip.
Yesterday
High -- | Low -- °F
Precip. -- in
Pressure 30.33 in
Visibility -9999.0 miles
Clouds
Dew Point 39 °F
Humidity 60%
Rainfall 0.00 in
Snow Depth Not available.
7:07 AM 5:27 PM
Waning Crescent, 3% visible
METAR LIRN 062350Z 35004KT CAVOK 05/00 Q1027 NOSIG
Pressure 30.33 in
Visibility -9999.0 miles
Clouds
Dew Point 39 °F
Humidity 60%
Rainfall 0.00 in
Snow Depth Not available.
7:07 AM 5:27 PM
Waning Crescent, 3% visible
METAR LIRN 062350Z 35004KT CAVOK 05/00 Q1027 NOSIG

10-Day Weather Forecast

Almanac

Astronomy

Feb. 07, 2016 Rise Set
Actual Time
Civil Twilight
Nautical Twilight
Astronomical Twilight
Moon
Length of Visible Light
Length of Day
Tomorrow will be .
, % of the Moon is Illuminated

Today's Extremes

Country Highs Country Lows

Community

WunderPhotos

Upload Photos

1,891,105 photos uploaded!

WunderBlog® & News

Nearby

Air Quality

  Air Quality AQ Index Pollutant
Not available.

Snow Depth

Station Depth Elevation

Earthquake Activity

City Distance Mag. Time & Date
Minimum magnitude displayed is 2.5.

Coastal Water Temperatures

Place Temperature

Stations

Nearby Weather Stations

Station Location Temp. Windchill Dew Point Humidity Wind Precip. Elev Updated Type